createdAt,value
2022-08-10T00:00:55.910Z,2.80
2022-08-10T00:03:22.438Z,3.45
2022-08-10T00:05:52.984Z,2.60
2022-08-10T00:10:55.514Z,3.20
2022-08-10T00:13:25.524Z,3.00
2022-08-10T00:15:55.017Z,2.80
2022-08-10T00:18:28.907Z,2.65
2022-08-10T00:21:07.121Z,3.20
2022-08-10T00:26:00.943Z,2.45
2022-08-10T00:28:27.590Z,3.22
2022-08-10T00:30:54.407Z,3.50
2022-08-10T00:33:21.006Z,2.78
2022-08-10T00:35:48.166Z,3.63
2022-08-10T00:38:14.706Z,3.33
2022-08-10T00:40:41.250Z,3.05
2022-08-10T00:43:07.973Z,3.10
2022-08-10T00:45:35.557Z,3.17
2022-08-10T00:48:02.035Z,3.20
2022-08-10T00:50:28.712Z,3.15
2022-08-10T00:52:55.247Z,3.28
2022-08-10T00:55:21.871Z,3.53
2022-08-10T00:57:55.143Z,3.15
2022-08-10T01:00:22.934Z,3.03
2022-08-10T01:02:49.451Z,3.45
2022-08-10T01:05:16.161Z,3.05
2022-08-10T01:07:56.645Z,3.97
2022-08-10T01:10:32.492Z,3.35
2022-08-10T01:13:06.652Z,3.13
2022-08-10T01:15:52.111Z,3.47
2022-08-10T01:18:26.451Z,3.03
2022-08-10T01:21:30.606Z,3.72
2022-08-10T01:24:26.995Z,3.42
2022-08-10T01:26:59.085Z,3.30
2022-08-10T01:29:32.125Z,3.00
2022-08-10T01:32:07.180Z,3.65
2022-08-10T01:34:54.596Z,3.40
2022-08-10T01:37:27.083Z,4.05
2022-08-10T01:39:58.532Z,3.85
2022-08-10T01:42:28.341Z,3.80
2022-08-10T01:45:02.693Z,3.28
2022-08-10T01:47:52.577Z,3.90
2022-08-10T01:50:26.955Z,3.22
2022-08-10T01:52:58.351Z,3.53
2022-08-10T01:55:26.707Z,3.60
2022-08-10T01:57:53.749Z,3.50
2022-08-10T02:00:20.664Z,4.13
2022-08-10T02:02:47.395Z,3.20
2022-08-10T02:05:15.931Z,3.30
2022-08-10T02:07:43.824Z,3.78
2022-08-10T02:10:14.541Z,3.70
2022-08-10T02:12:43.519Z,3.63
2022-08-10T02:15:16.478Z,3.70
2022-08-10T02:17:57.671Z,3.90
2022-08-10T02:20:36.632Z,3.97
2022-08-10T02:23:08.664Z,4.35
2022-08-10T02:25:40.865Z,4.32
2022-08-10T02:28:13.288Z,4.43
2022-08-10T02:30:57.682Z,4.53
2022-08-10T02:33:27.257Z,4.13
2022-08-10T02:35:56.132Z,4.20
2022-08-10T02:38:59.800Z,4.07
2022-08-10T02:45:01.233Z,4.10
2022-08-10T02:45:23.151Z,4.55
2022-08-10T02:48:03.665Z,5.10
2022-08-10T02:50:34.774Z,4.63
2022-08-10T02:53:54.934Z,3.90
2022-08-10T02:56:10.157Z,4.10
2022-08-10T02:58:44.646Z,4.65
2022-08-10T03:01:16.034Z,4.15
2022-08-10T03:03:49.707Z,4.65
2022-08-10T03:06:25.590Z,4.63
2022-08-10T03:08:54.087Z,4.97
2022-08-10T03:12:35.036Z,4.80
2022-08-10T03:14:11.952Z,5.67
2022-08-10T03:16:39.633Z,5.03
2022-08-10T03:20:35.414Z,4.60
2022-08-10T03:21:56.749Z,4.43
2022-08-10T03:24:32.535Z,4.43
2022-08-10T03:27:00.947Z,4.72
2022-08-10T03:29:28.613Z,4.70
2022-08-10T03:31:56.256Z,3.83
2022-08-10T03:34:33.304Z,4.45
2022-08-10T03:37:00.630Z,4.05
2022-08-10T03:39:27.505Z,5.60
2022-08-10T03:41:57.657Z,4.53
2022-08-10T03:44:27.440Z,4.60
2022-08-10T03:46:55.214Z,4.40
2022-08-10T03:49:23.070Z,5.22
2022-08-10T03:51:51.382Z,5.20
2022-08-10T03:54:19.115Z,4.80
2022-08-10T03:56:46.077Z,4.97
2022-08-10T03:59:14.627Z,5.07
2022-08-10T04:02:46.061Z,4.32
2022-08-10T04:04:29.595Z,5.00
2022-08-10T04:06:58.938Z,5.97
2022-08-10T04:09:42.709Z,7.03
2022-08-10T04:12:14.292Z,5.65
2022-08-10T04:14:51.198Z,6.38
2022-08-10T04:18:03.939Z,6.70
2022-08-10T04:20:34.205Z,6.85
2022-08-10T04:23:06.782Z,6.63
2022-08-10T04:25:34.412Z,6.93
2022-08-10T04:28:01.303Z,7.05
2022-08-10T04:30:31.424Z,6.90
2022-08-10T04:32:59.692Z,6.63
2022-08-10T04:35:28.834Z,6.70
2022-08-10T04:37:57.081Z,6.63
2022-08-10T04:40:29.792Z,7.00
2022-08-10T04:43:07.497Z,7.40
2022-08-10T04:45:49.042Z,8.20
2022-08-10T04:48:43.092Z,8.10
2022-08-10T04:51:05.900Z,7.97
2022-08-10T04:53:32.345Z,7.03
2022-08-10T04:55:58.809Z,8.30
2022-08-10T04:58:25.247Z,8.18
2022-08-10T05:00:51.742Z,6.50
2022-08-10T05:03:18.228Z,7.60
2022-08-10T05:05:44.637Z,6.85
2022-08-10T05:08:11.053Z,6.75
2022-08-10T05:10:37.503Z,6.35
2022-08-10T05:13:03.923Z,6.68
2022-08-10T05:15:30.379Z,6.97
2022-08-10T05:18:08.799Z,6.13
2022-08-10T05:20:38.881Z,7.05
2022-08-10T05:23:05.329Z,7.32
2022-08-10T05:25:32.485Z,7.00
2022-08-10T05:28:06.461Z,6.88
2022-08-10T05:30:34.128Z,6.15
2022-08-10T05:33:04.942Z,6.28
2022-08-10T05:35:55.187Z,5.88
2022-08-10T05:38:22.797Z,5.60
2022-08-10T05:40:50.185Z,5.82
2022-08-10T05:43:19.247Z,5.43
2022-08-10T05:46:18.083Z,6.53
2022-08-10T05:48:41.956Z,5.80
2022-08-10T05:51:20.891Z,6.28
2022-08-10T05:54:02.863Z,5.43
2022-08-10T05:56:56.982Z,5.22
2022-08-10T06:00:34.973Z,5.38
2022-08-10T06:02:41.136Z,5.47
2022-08-10T06:04:56.820Z,5.63
2022-08-10T06:07:27.282Z,5.43
2022-08-10T06:10:00.055Z,6.25
2022-08-10T06:12:31.315Z,5.72
2022-08-10T06:15:05.840Z,4.57
2022-08-10T06:17:37.224Z,5.53
2022-08-10T06:20:04.448Z,4.70
2022-08-10T06:22:34.121Z,5.22
2022-08-10T06:25:37.806Z,4.65
2022-08-10T06:27:50.653Z,4.25
2022-08-10T06:30:20.870Z,4.57
2022-08-10T06:32:51.190Z,4.43
2022-08-10T06:35:18.942Z,4.17
2022-08-10T06:37:51.569Z,4.15
2022-08-10T06:40:19.485Z,4.13
2022-08-10T06:42:50.774Z,4.28
2022-08-10T06:45:19.966Z,4.28
2022-08-10T06:47:55.774Z,3.40
2022-08-10T06:50:56.395Z,3.65
2022-08-10T06:53:53.289Z,4.13
2022-08-10T06:56:36.575Z,3.45
2022-08-10T06:59:21.190Z,3.47
2022-08-10T07:01:53.150Z,4.18
2022-08-10T07:04:32.567Z,3.75
2022-08-10T07:07:04.326Z,3.95
2022-08-10T07:09:35.009Z,3.78
2022-08-10T07:12:07.552Z,3.60
2022-08-10T07:14:42.592Z,3.72
2022-08-10T07:17:15.136Z,3.42
2022-08-10T07:19:50.022Z,3.10
2022-08-10T07:23:22.891Z,2.97
2022-08-10T07:25:12.115Z,2.90
2022-08-10T07:28:00.129Z,3.55
2022-08-10T07:30:30.403Z,2.85
2022-08-10T07:32:57.814Z,2.90
2022-08-10T07:35:26.995Z,2.55
2022-08-10T07:37:54.546Z,3.45
2022-08-10T07:40:22.236Z,2.90
2022-08-10T07:42:53.610Z,2.92
2022-08-10T07:45:20.311Z,2.97
2022-08-10T07:48:17.207Z,3.45
2022-08-10T07:50:46.180Z,2.80
2022-08-10T07:53:20.349Z,3.20
2022-08-10T07:56:03.663Z,2.47
2022-08-10T07:58:52.611Z,3.17
2022-08-10T08:01:21.699Z,3.20
2022-08-10T08:04:05.885Z,2.45
2022-08-10T08:06:36.752Z,2.30
2022-08-10T08:09:04.532Z,2.70
2022-08-10T08:11:32.367Z,3.13
2022-08-10T08:14:00.377Z,2.90
2022-08-10T08:16:27.118Z,2.83
2022-08-10T08:19:23.962Z,2.50
2022-08-10T08:24:06.315Z,2.60
2022-08-10T08:24:34.451Z,2.30
2022-08-10T08:27:03.230Z,2.42
2022-08-10T08:29:34.351Z,2.53
2022-08-10T08:32:03.699Z,2.47
2022-08-10T08:34:32.623Z,2.50
2022-08-10T08:37:00.895Z,2.60
2022-08-10T08:39:27.538Z,2.35
2022-08-10T08:41:59.154Z,2.38
2022-08-10T08:45:00.588Z,2.20
2022-08-10T08:48:02.368Z,2.20
2022-08-10T08:50:37.214Z,2.15
2022-08-10T08:54:01.571Z,2.35
2022-08-10T08:56:28.462Z,2.13
2022-08-10T08:59:23.330Z,2.30
2022-08-10T09:02:27.805Z,2.42
2022-08-10T09:05:23.603Z,2.25
2022-08-10T09:08:06.081Z,2.67
2022-08-10T09:10:52.595Z,2.80
2022-08-10T09:13:27.225Z,2.40
2022-08-10T09:16:03.648Z,1.83
2022-08-10T09:18:54.971Z,2.20
2022-08-10T09:22:13.501Z,1.83
2022-08-10T09:24:46.252Z,1.58
2022-08-10T09:27:26.671Z,1.73
2022-08-10T09:30:00.303Z,1.40
2022-08-10T09:36:13.758Z,2.08
2022-08-10T09:36:23.359Z,1.98
2022-08-10T09:40:12.435Z,1.95
2022-08-10T09:42:28.850Z,1.95
2022-08-10T09:45:14.795Z,1.85
2022-08-10T09:48:01.064Z,1.98
2022-08-10T09:51:34.505Z,2.10
2022-08-10T09:53:50.123Z,1.70
2022-08-10T09:56:48.366Z,2.47
2022-08-10T10:00:01.929Z,1.80
2022-08-10T10:02:32.068Z,2.00
2022-08-10T10:05:21.709Z,1.92
2022-08-10T10:08:02.987Z,1.92
2022-08-10T10:10:47.455Z,2.20
2022-08-10T10:13:41.738Z,1.48
2022-08-10T10:16:24.148Z,1.63
2022-08-10T10:19:27.692Z,1.50
2022-08-10T10:22:17.707Z,1.95
2022-08-10T10:25:19.845Z,1.80
2022-08-10T10:28:05.734Z,1.90
2022-08-10T10:30:39.447Z,1.90
2022-08-10T10:33:14.902Z,1.73
2022-08-10T10:35:52.347Z,1.75
2022-08-10T10:38:23.262Z,1.75
2022-08-10T10:40:54.715Z,1.73
2022-08-10T10:43:39.864Z,1.80
2022-08-10T10:46:12.147Z,1.70
2022-08-10T10:49:01.974Z,1.80
2022-08-10T10:51:34.955Z,1.50
2022-08-10T10:54:10.649Z,1.33
2022-08-10T10:56:56.994Z,1.55
2022-08-10T10:59:55.181Z,1.30
2022-08-10T11:02:51.650Z,2.10
2022-08-10T11:05:26.911Z,1.92
2022-08-10T11:08:01.068Z,1.55
2022-08-10T11:10:35.227Z,1.75
2022-08-10T11:14:27.498Z,1.80
2022-08-10T11:16:24.576Z,1.52
2022-08-10T11:19:13.839Z,1.75
2022-08-10T11:22:11.340Z,1.38
2022-08-10T11:25:01.732Z,1.40
2022-08-10T11:27:48.716Z,1.35
2022-08-10T11:30:20.266Z,1.75
2022-08-10T11:33:32.457Z,1.40
2022-08-10T11:36:08.708Z,1.45
2022-08-10T11:39:14.109Z,1.40
2022-08-10T11:42:07.983Z,1.50
2022-08-10T11:44:43.575Z,1.42
2022-08-10T11:47:23.175Z,1.90
2022-08-10T11:49:58.478Z,2.53
2022-08-10T11:52:24.912Z,1.60
2022-08-10T11:54:55.121Z,1.67
2022-08-10T11:57:53.185Z,1.63
2022-08-10T12:00:16.049Z,1.20
2022-08-10T12:02:49.272Z,1.60
2022-08-10T12:05:21.350Z,1.80
2022-08-10T12:08:54.850Z,1.70
2022-08-10T12:10:41.027Z,1.67
2022-08-10T12:13:26.167Z,1.58
2022-08-10T12:16:08.903Z,1.92
2022-08-10T12:18:46.974Z,1.52
2022-08-10T12:21:22.438Z,1.73
2022-08-10T12:24:08.505Z,1.40
2022-08-10T12:26:49.784Z,1.75
2022-08-10T12:29:57.972Z,1.30
2022-08-10T12:32:50.343Z,1.50
2022-08-10T12:35:22.838Z,1.80
2022-08-10T12:38:14.141Z,1.50
2022-08-10T12:40:48.452Z,1.60
2022-08-10T12:44:04.524Z,1.42
2022-08-10T12:46:26.118Z,1.52
2022-08-10T12:49:19.813Z,1.30
2022-08-10T12:52:00.098Z,1.80
2022-08-10T12:54:33.870Z,1.23
2022-08-10T12:57:05.472Z,1.30
2022-08-10T12:59:33.551Z,1.67
2022-08-10T13:02:14.702Z,1.60
2022-08-10T13:04:43.040Z,1.88
2022-08-10T13:07:10.438Z,1.60
2022-08-10T13:10:26.036Z,1.20
2022-08-10T13:12:57.516Z,1.58
2022-08-10T13:15:48.798Z,1.30
2022-08-10T13:18:18.278Z,1.30
2022-08-10T13:20:50.576Z,1.50
2022-08-10T13:23:24.857Z,1.90
2022-08-10T13:25:54.003Z,1.20
2022-08-10T13:28:37.800Z,1.50
2022-08-10T13:31:11.441Z,1.60
2022-08-10T13:34:36.604Z,1.40
2022-08-10T13:36:40.111Z,1.70
2022-08-10T13:39:08.184Z,1.35
2022-08-10T13:41:40.432Z,1.30
2022-08-10T13:44:09.574Z,1.42
2022-08-10T13:46:40.402Z,1.30
2022-08-10T13:49:08.414Z,1.45
2022-08-10T13:51:57.012Z,1.70
2022-08-10T13:54:26.680Z,1.50
2022-08-10T13:56:55.677Z,1.38
2022-08-10T13:59:26.624Z,1.60
2022-08-10T14:02:17.418Z,1.30
2022-08-10T14:04:46.200Z,1.13
2022-08-10T14:07:14.533Z,1.67
2022-08-10T14:09:41.700Z,1.50
2022-08-10T14:12:10.372Z,1.70
2022-08-10T14:14:38.826Z,1.52
2022-08-10T14:17:07.249Z,1.50
2022-08-10T14:19:43.228Z,1.60
2022-08-10T14:22:16.990Z,1.27
2022-08-10T14:24:46.702Z,1.52
2022-08-10T14:27:16.560Z,1.50
2022-08-10T14:29:49.661Z,1.75
2022-08-10T14:32:21.472Z,1.45
2022-08-10T14:36:16.375Z,1.63
2022-08-10T14:37:40.006Z,1.48
2022-08-10T14:40:11.685Z,1.40
2022-08-10T14:42:47.055Z,1.50
2022-08-10T14:45:21.230Z,1.60
2022-08-10T14:47:53.906Z,1.92
2022-08-10T14:50:31.774Z,1.45
2022-08-10T14:53:09.256Z,1.60
2022-08-10T14:55:58.646Z,1.50
2022-08-10T14:58:31.163Z,1.55
2022-08-10T15:00:58.551Z,1.60
2022-08-10T15:04:01.734Z,1.40
2022-08-10T15:06:20.514Z,1.38
2022-08-10T15:09:12.661Z,1.50
2022-08-10T15:12:13.858Z,1.60
2022-08-10T15:14:43.118Z,1.45
2022-08-10T15:17:13.592Z,1.58
2022-08-10T15:20:02.231Z,1.63
2022-08-10T15:22:39.199Z,1.80
2022-08-10T15:25:19.315Z,1.63
2022-08-10T15:28:13.155Z,2.08
2022-08-10T15:30:45.907Z,1.92
2022-08-10T15:34:01.970Z,1.85
2022-08-10T15:36:44.953Z,1.58
2022-08-10T15:40:25.915Z,1.60
2022-08-10T15:42:26.231Z,1.67
2022-08-10T15:44:54.930Z,1.77
2022-08-10T15:47:26.644Z,1.42
2022-08-10T15:50:06.820Z,1.90
2022-08-10T15:53:00.879Z,1.77
2022-08-10T15:55:47.693Z,1.95
2022-08-10T15:58:55.789Z,1.45
2022-08-10T16:02:14.678Z,2.40
2022-08-10T16:04:47.499Z,1.70
2022-08-10T16:07:19.432Z,2.28
2022-08-10T16:10:26.831Z,1.73
2022-08-10T16:13:00.160Z,1.50
2022-08-10T16:15:29.081Z,1.65
2022-08-10T16:18:16.539Z,1.55
2022-08-10T16:20:55.210Z,1.67
2022-08-10T16:23:29.871Z,2.00
2022-08-10T16:26:01.828Z,1.70
2022-08-10T16:28:36.870Z,1.60
2022-08-10T16:31:12.561Z,1.73
2022-08-10T16:33:53.657Z,1.88
2022-08-10T16:36:21.943Z,1.80
2022-08-10T16:38:50.186Z,1.65
2022-08-10T16:41:52.097Z,1.83
2022-08-10T16:44:10.168Z,1.80
2022-08-10T16:46:42.361Z,1.88
2022-08-10T16:49:09.963Z,2.10
2022-08-10T16:51:37.940Z,1.75
2022-08-10T16:54:06.912Z,1.60
2022-08-10T16:56:49.328Z,1.98
2022-08-10T16:59:20.664Z,1.60
2022-08-10T17:01:51.645Z,1.60
2022-08-10T17:04:23.453Z,1.80
2022-08-10T17:07:03.792Z,1.90
2022-08-10T17:09:33.076Z,1.73
2022-08-10T17:12:05.638Z,1.80
2022-08-10T17:14:32.159Z,2.15
2022-08-10T17:17:04.368Z,2.03
2022-08-10T17:19:39.375Z,1.90
2022-08-10T17:22:12.819Z,1.80
2022-08-10T17:24:45.367Z,2.03
2022-08-10T17:28:05.447Z,2.08
2022-08-10T17:30:04.805Z,2.30
2022-08-10T17:32:49.686Z,2.20
2022-08-10T17:35:23.461Z,2.17
2022-08-10T17:38:00.474Z,2.15
2022-08-10T17:40:28.535Z,1.75
2022-08-10T17:42:55.911Z,2.33
2022-08-10T17:45:47.028Z,2.50
2022-08-10T17:48:12.693Z,2.70
2022-08-10T17:50:42.746Z,3.17
2022-08-10T17:53:20.247Z,2.58
2022-08-10T17:55:49.248Z,2.58
2022-08-10T17:58:18.165Z,2.40
2022-08-10T18:00:51.044Z,2.72
2022-08-10T18:03:25.196Z,2.30
2022-08-10T18:05:59.756Z,2.17
2022-08-10T18:08:29.370Z,1.95
2022-08-10T18:10:57.953Z,1.77
2022-08-10T18:13:27.512Z,2.10
2022-08-10T18:16:15.529Z,2.65
2022-08-10T18:18:41.968Z,2.17
2022-08-10T18:21:15.781Z,2.30
2022-08-10T18:23:44.409Z,2.33
2022-08-10T18:26:22.896Z,2.20
2022-08-10T18:28:55.566Z,2.20
2022-08-10T18:31:25.312Z,2.30
2022-08-10T18:33:55.580Z,2.23
2022-08-10T18:36:23.856Z,2.38
2022-08-10T18:38:53.412Z,2.47
2022-08-10T18:41:26.599Z,2.60
2022-08-10T18:44:10.287Z,3.20
2022-08-10T18:46:46.021Z,2.92
2022-08-10T18:49:30.045Z,3.13
2022-08-10T18:52:00.502Z,3.72
2022-08-10T18:54:43.803Z,3.10
2022-08-10T18:57:36.098Z,3.35
2022-08-10T19:00:13.182Z,3.17
2022-08-10T19:03:10.081Z,3.13
2022-08-10T19:05:58.132Z,2.83
2022-08-10T19:08:49.199Z,2.78
2022-08-10T19:12:04.970Z,2.63
2022-08-10T19:15:06.924Z,2.88
2022-08-10T19:18:05.970Z,2.20
2022-08-10T19:21:08.906Z,3.22
2022-08-10T19:23:54.245Z,2.60
2022-08-10T19:26:44.536Z,2.47
2022-08-10T19:30:01.033Z,2.70
2022-08-10T19:32:27.357Z,3.17
2022-08-10T19:35:31.520Z,2.60
2022-08-10T19:38:16.764Z,2.80
2022-08-10T19:41:09.339Z,2.78
2022-08-10T19:44:00.047Z,2.60
2022-08-10T19:46:37.607Z,2.92
2022-08-10T19:49:17.428Z,2.65
2022-08-10T19:52:19.599Z,3.20
2022-08-10T19:55:04.436Z,2.53
2022-08-10T19:57:37.610Z,2.97
2022-08-10T20:00:19.430Z,2.55
2022-08-10T20:03:13.128Z,2.72
2022-08-10T20:06:18.181Z,2.85
2022-08-10T20:08:46.128Z,2.58
2022-08-10T20:11:44.766Z,2.65
2022-08-10T20:14:22.974Z,2.90
2022-08-10T20:16:56.283Z,2.45
2022-08-10T20:19:22.744Z,2.30
2022-08-10T20:22:04.624Z,2.40
2022-08-10T20:24:38.846Z,2.80
2022-08-10T20:27:57.651Z,2.95
2022-08-10T20:30:04.879Z,2.88
2022-08-10T20:33:02.915Z,2.72
2022-08-10T20:36:00.093Z,2.83
2022-08-10T20:38:34.180Z,2.83
2022-08-10T20:41:03.392Z,3.30
2022-08-10T20:43:41.610Z,3.03
2022-08-10T20:46:17.199Z,2.85
2022-08-10T20:48:56.363Z,2.90
2022-08-10T20:51:58.990Z,2.85
2022-08-10T20:54:17.590Z,2.80
2022-08-10T20:57:54.526Z,3.17
2022-08-10T21:00:09.913Z,3.28
2022-08-10T21:03:21.306Z,3.03
2022-08-10T21:06:08.986Z,2.90
2022-08-10T21:08:50.801Z,3.40
2022-08-10T21:11:55.022Z,2.65
2022-08-10T21:14:50.941Z,2.70
2022-08-10T21:17:53.518Z,2.28
2022-08-10T21:20:47.213Z,2.90
2022-08-10T21:23:16.724Z,2.70
2022-08-10T21:26:07.452Z,2.70
2022-08-10T21:28:49.996Z,2.67
2022-08-10T21:31:48.142Z,2.40
2022-08-10T21:34:35.179Z,2.47
2022-08-10T21:37:39.821Z,2.70
2022-08-10T21:40:34.494Z,2.28
2022-08-10T21:43:44.389Z,2.53
2022-08-10T21:46:55.251Z,2.75
2022-08-10T21:50:18.123Z,2.58
2022-08-10T21:53:45.025Z,2.35
2022-08-10T21:56:47.762Z,2.70
2022-08-10T21:59:56.638Z,3.05
2022-08-10T22:02:52.565Z,2.55
2022-08-10T22:05:47.907Z,2.60
2022-08-10T22:08:37.476Z,2.50
2022-08-10T22:11:26.716Z,2.55
2022-08-10T22:14:12.859Z,2.60
2022-08-10T22:18:00.266Z,2.90
2022-08-10T22:20:27.158Z,2.58
2022-08-10T22:23:34.633Z,2.85
2022-08-10T22:26:40.190Z,2.33
2022-08-10T22:29:42.348Z,2.67
2022-08-10T22:32:41.965Z,2.53
2022-08-10T22:36:04.900Z,2.42
2022-08-10T22:40:10.995Z,2.83
2022-08-10T22:42:59.299Z,3.00
2022-08-10T22:45:40.656Z,2.25
2022-08-10T22:48:26.003Z,2.35
2022-08-10T22:50:56.793Z,2.42
2022-08-10T22:54:08.335Z,2.65
2022-08-10T22:56:58.100Z,3.30
2022-08-10T22:59:32.387Z,3.97
2022-08-10T23:02:18.774Z,3.60
2022-08-10T23:04:51.387Z,2.92
2022-08-10T23:07:17.747Z,2.80
2022-08-10T23:09:49.465Z,2.17
2022-08-10T23:12:20.977Z,2.60
2022-08-10T23:15:00.066Z,2.40
2022-08-10T23:18:01.891Z,2.90
2022-08-10T23:20:30.301Z,1.98
2022-08-10T23:23:04.744Z,2.20
2022-08-10T23:25:56.793Z,2.15
2022-08-10T23:28:38.938Z,2.70
2022-08-10T23:31:14.458Z,2.97
2022-08-10T23:33:42.618Z,2.67
2022-08-10T23:36:34.577Z,2.40
2022-08-10T23:39:25.796Z,2.67
2022-08-10T23:41:56.190Z,2.50
2022-08-10T23:44:24.703Z,2.85
2022-08-10T23:46:51.663Z,2.45
2022-08-10T23:49:19.911Z,2.30
2022-08-10T23:51:55.396Z,2.50
2022-08-10T23:54:24.769Z,2.55
2022-08-10T23:56:54.288Z,2.63
2022-08-10T23:59:23.569Z,2.83
